createdAt,value
2019-02-02T00:01:37.980Z,5.00
2019-02-02T00:04:07.603Z,5.53
2019-02-02T00:06:49.836Z,4.87
2019-02-02T00:09:19.441Z,6.33
2019-02-02T00:12:00.745Z,5.17
2019-02-02T00:14:30.329Z,6.37
2019-02-02T00:16:59.935Z,4.83
2019-02-02T00:19:29.517Z,4.70
2019-02-02T00:21:59.065Z,4.37
2019-02-02T00:24:28.673Z,4.70
2019-02-02T00:26:58.245Z,4.93
2019-02-02T00:29:27.925Z,4.47
2019-02-02T00:31:57.613Z,3.13
2019-02-02T00:34:27.195Z,4.60
2019-02-02T00:36:59.109Z,3.70
2019-02-02T00:39:28.077Z,4.50
2019-02-02T00:41:57.680Z,4.93
2019-02-02T00:44:27.260Z,5.70
2019-02-02T00:46:56.924Z,4.97
2019-02-02T00:49:26.577Z,5.30
2019-02-02T00:51:56.162Z,5.23
2019-02-02T00:54:25.800Z,6.57
2019-02-02T00:56:55.436Z,4.57
2019-02-02T00:59:25.032Z,5.33
2019-02-02T01:01:54.604Z,4.30
2019-02-02T01:04:24.174Z,5.50
2019-02-02T01:06:53.762Z,4.17
2019-02-02T01:09:25.724Z,4.03
2019-02-02T01:11:55.322Z,4.17
2019-02-02T01:14:24.921Z,3.80
2019-02-02T01:16:54.529Z,4.53
2019-02-02T01:19:24.104Z,4.33
2019-02-02T01:21:53.694Z,6.03
2019-02-02T01:24:23.333Z,4.93
2019-02-02T01:26:52.930Z,4.27
2019-02-02T01:29:22.582Z,4.30
2019-02-02T01:31:52.176Z,3.87
2019-02-02T01:34:21.769Z,4.07
2019-02-02T01:36:51.384Z,4.40
2019-02-02T01:39:20.957Z,4.60
2019-02-02T01:41:50.565Z,4.27
2019-02-02T01:44:20.258Z,4.10
2019-02-02T01:46:49.905Z,4.67
2019-02-02T01:49:19.471Z,4.40
2019-02-02T01:51:49.083Z,3.13
2019-02-02T01:54:18.677Z,4.53
2019-02-02T01:56:48.248Z,4.13
2019-02-02T01:59:17.884Z,4.17
2019-02-02T02:01:47.469Z,4.30
2019-02-02T02:04:17.030Z,4.27
2019-02-02T02:06:46.632Z,4.17
2019-02-02T02:09:16.211Z,4.37
2019-02-02T02:11:46.504Z,4.37
2019-02-02T02:14:16.103Z,3.93
2019-02-02T02:16:45.652Z,5.23
2019-02-02T02:19:16.376Z,4.10
2019-02-02T02:21:45.950Z,3.87
2019-02-02T02:24:15.528Z,4.33
2019-02-02T02:26:45.102Z,4.23
2019-02-02T02:29:14.700Z,4.37
2019-02-02T02:31:44.320Z,4.17
2019-02-02T02:34:14.549Z,3.90
2019-02-02T02:36:44.140Z,3.20
2019-02-02T02:39:13.709Z,4.17
2019-02-02T02:41:43.318Z,4.53
2019-02-02T02:44:12.889Z,5.30
2019-02-02T02:46:42.509Z,4.17
2019-02-02T02:49:12.069Z,4.23
2019-02-02T02:51:41.690Z,3.57
2019-02-02T02:54:11.267Z,3.93
2019-02-02T02:56:40.791Z,4.13
2019-02-02T02:59:10.393Z,4.07
2019-02-02T03:01:40.021Z,4.80
2019-02-02T03:04:09.589Z,3.63
2019-02-02T03:06:39.181Z,3.73
2019-02-02T03:09:10.112Z,3.97
2019-02-02T03:11:39.677Z,3.70
2019-02-02T03:14:09.299Z,3.47
2019-02-02T03:16:38.863Z,4.30
2019-02-02T03:19:08.513Z,4.90
2019-02-02T03:21:38.089Z,4.10
2019-02-02T03:24:07.672Z,4.23
2019-02-02T03:26:37.356Z,3.90
2019-02-02T03:29:06.908Z,3.67
2019-02-02T03:31:36.512Z,4.10
2019-02-02T03:34:06.146Z,3.60
2019-02-02T03:36:35.758Z,3.63
2019-02-02T03:39:09.432Z,4.23
2019-02-02T03:41:39.040Z,4.20
2019-02-02T03:44:08.657Z,4.37
2019-02-02T03:46:38.212Z,3.33
2019-02-02T03:49:07.792Z,4.83
2019-02-02T03:51:37.358Z,4.70
2019-02-02T03:54:08.889Z,3.83
2019-02-02T03:56:39.865Z,3.60
2019-02-02T03:59:09.486Z,4.23
2019-02-02T04:01:39.127Z,3.83
2019-02-02T04:04:08.704Z,3.20
2019-02-02T04:06:38.301Z,3.70
2019-02-02T04:09:08.938Z,4.40
2019-02-02T04:11:38.542Z,3.07
2019-02-02T04:14:08.133Z,3.50
2019-02-02T04:16:39.346Z,3.50
2019-02-02T04:19:08.925Z,4.10
2019-02-02T04:21:39.070Z,3.37
2019-02-02T04:24:08.652Z,3.77
2019-02-02T04:26:38.224Z,4.77
2019-02-02T04:29:17.663Z,3.33
2019-02-02T04:31:39.066Z,4.33
2019-02-02T04:34:08.660Z,3.63
2019-02-02T04:36:38.299Z,4.17
2019-02-02T04:39:08.720Z,4.20
2019-02-02T04:41:38.250Z,3.87
2019-02-02T04:44:07.874Z,4.13
2019-02-02T04:46:38.772Z,4.27
2019-02-02T04:49:08.340Z,3.57
2019-02-02T04:51:37.962Z,4.77
2019-02-02T04:54:07.534Z,3.80
2019-02-02T04:56:37.107Z,3.20
2019-02-02T04:59:06.701Z,3.70
2019-02-02T05:01:37.862Z,4.40
2019-02-02T05:04:07.514Z,3.87
2019-02-02T05:06:37.085Z,4.63
2019-02-02T05:09:08.338Z,3.67
2019-02-02T05:11:37.902Z,4.13
2019-02-02T05:14:07.502Z,4.73
2019-02-02T05:16:37.078Z,3.70
2019-02-02T05:19:06.629Z,4.60
2019-02-02T05:21:36.231Z,4.07
2019-02-02T05:24:05.800Z,3.80
2019-02-02T05:26:35.361Z,3.77
2019-02-02T05:29:04.934Z,3.87
2019-02-02T05:31:34.561Z,3.73
2019-02-02T05:34:04.205Z,3.90
2019-02-02T05:36:33.769Z,4.00
2019-02-02T05:39:04.639Z,4.33
2019-02-02T05:41:34.239Z,3.97
2019-02-02T05:44:03.953Z,4.87
2019-02-02T05:46:33.573Z,4.33
2019-02-02T05:49:03.160Z,3.80
2019-02-02T05:51:33.981Z,3.70
2019-02-02T05:54:05.265Z,4.00
2019-02-02T05:56:34.931Z,4.03
2019-02-02T05:59:04.503Z,3.23
2019-02-02T06:01:34.245Z,4.00
2019-02-02T06:04:03.812Z,4.33
2019-02-02T06:06:33.415Z,4.07
2019-02-02T06:09:04.663Z,3.97
2019-02-02T06:11:34.232Z,3.90
2019-02-02T06:14:03.828Z,4.03
2019-02-02T06:16:33.418Z,3.87
2019-02-02T06:19:03.094Z,3.73
2019-02-02T06:21:32.742Z,4.50
2019-02-02T06:24:02.269Z,4.20
2019-02-02T06:26:33.510Z,4.10
2019-02-02T06:29:03.082Z,4.17
2019-02-02T06:31:32.656Z,4.30
2019-02-02T06:34:02.324Z,3.67
2019-02-02T06:36:31.872Z,4.00
2019-02-02T06:39:01.463Z,3.63
2019-02-02T06:41:31.023Z,4.73
2019-02-02T06:44:00.598Z,4.70
2019-02-02T06:46:30.166Z,3.17
2019-02-02T06:49:01.549Z,4.20
2019-02-02T06:51:31.108Z,3.80
2019-02-02T06:54:00.667Z,4.37
2019-02-02T06:56:30.364Z,3.93
2019-02-02T06:59:00.467Z,4.57
2019-02-02T07:01:30.077Z,4.30
2019-02-02T07:03:59.666Z,3.70
2019-02-02T07:06:29.237Z,4.70
2019-02-02T07:08:58.911Z,4.27
2019-02-02T07:11:28.528Z,5.63
2019-02-02T07:13:59.724Z,4.43
2019-02-02T07:16:29.306Z,3.80
2019-02-02T07:18:58.986Z,4.63
2019-02-02T07:21:28.582Z,3.40
2019-02-02T07:23:58.258Z,3.83
2019-02-02T07:26:27.863Z,3.93
2019-02-02T07:28:57.438Z,3.97
2019-02-02T07:31:26.990Z,3.47
2019-02-02T07:33:56.587Z,4.00
2019-02-02T07:36:26.267Z,3.87
2019-02-02T07:38:55.853Z,3.63
2019-02-02T07:41:25.417Z,3.70
2019-02-02T07:43:54.989Z,3.20
2019-02-02T07:46:24.641Z,4.07
2019-02-02T07:48:54.233Z,3.70
2019-02-02T07:51:23.829Z,4.90
2019-02-02T07:53:53.424Z,3.80
2019-02-02T07:56:23.016Z,3.47
2019-02-02T07:58:52.590Z,3.53
2019-02-02T08:01:22.122Z,4.10
2019-02-02T08:03:51.762Z,3.90
2019-02-02T08:06:21.316Z,3.77
2019-02-02T08:08:50.937Z,3.30
2019-02-02T08:11:20.698Z,3.97
2019-02-02T08:13:50.274Z,4.07
2019-02-02T08:16:19.854Z,4.10
2019-02-02T08:18:49.454Z,3.20
2019-02-02T08:21:19.033Z,3.77
2019-02-02T08:23:50.546Z,4.03
2019-02-02T08:26:20.616Z,3.53
2019-02-02T08:28:50.186Z,4.23
2019-02-02T08:31:19.774Z,3.73
2019-02-02T08:33:50.973Z,3.57
2019-02-02T08:36:20.580Z,3.87
2019-02-02T08:38:50.194Z,3.67
2019-02-02T08:41:19.807Z,3.70
2019-02-02T08:43:49.373Z,3.53
2019-02-02T08:46:18.973Z,3.43
2019-02-02T08:48:48.557Z,3.50
2019-02-02T08:51:18.217Z,3.57
2019-02-02T08:53:47.903Z,3.97
2019-02-02T08:56:17.544Z,3.37
2019-02-02T08:58:47.151Z,3.90
2019-02-02T09:01:16.709Z,3.37
2019-02-02T09:03:46.361Z,4.50
2019-02-02T09:06:16.029Z,3.73
2019-02-02T09:08:45.632Z,3.63
2019-02-02T09:11:17.786Z,3.73
2019-02-02T09:13:50.225Z,3.60
2019-02-02T09:16:19.857Z,3.30
2019-02-02T09:18:51.296Z,3.67
2019-02-02T09:21:20.773Z,3.60
2019-02-02T09:23:50.355Z,3.40
2019-02-02T09:26:19.942Z,3.50
2019-02-02T09:28:49.505Z,3.53
2019-02-02T09:31:19.099Z,4.13
2019-02-02T09:33:48.679Z,2.73
2019-02-02T09:36:18.237Z,3.33
2019-02-02T09:38:47.828Z,3.77
2019-02-02T09:41:17.396Z,3.33
2019-02-02T09:43:47.011Z,3.47
2019-02-02T09:46:16.664Z,3.77
2019-02-02T09:48:46.261Z,3.80
2019-02-02T09:51:15.852Z,3.47
2019-02-02T09:53:46.751Z,3.27
2019-02-02T09:56:16.340Z,3.23
2019-02-02T09:58:46.108Z,3.10
2019-02-02T10:01:27.085Z,3.27
2019-02-02T10:03:47.072Z,3.73
2019-02-02T10:06:16.728Z,3.97
2019-02-02T10:08:46.337Z,3.70
2019-02-02T10:11:15.928Z,3.23
2019-02-02T10:13:45.526Z,3.47
2019-02-02T10:16:15.122Z,3.47
2019-02-02T10:18:45.790Z,3.73
2019-02-02T10:21:15.431Z,3.83
2019-02-02T10:23:45.038Z,3.50
2019-02-02T10:26:14.702Z,3.50
2019-02-02T10:28:44.285Z,3.67
2019-02-02T10:31:13.886Z,3.40
2019-02-02T10:33:43.513Z,3.40
2019-02-02T10:36:13.136Z,3.60
2019-02-02T10:38:42.873Z,3.33
2019-02-02T10:41:15.486Z,3.30
2019-02-02T10:43:45.960Z,3.80
2019-02-02T10:46:15.556Z,3.07
2019-02-02T10:48:45.182Z,3.20
2019-02-02T10:51:14.793Z,3.27
2019-02-02T10:53:44.394Z,3.63
2019-02-02T10:56:14.048Z,4.07
2019-02-02T10:58:43.626Z,3.23
2019-02-02T11:01:13.266Z,3.30
2019-02-02T11:03:42.828Z,3.73
2019-02-02T11:06:12.606Z,3.53
2019-02-02T11:08:42.276Z,3.13
2019-02-02T11:11:12.084Z,3.80
2019-02-02T11:13:42.437Z,3.47
2019-02-02T11:16:12.856Z,3.70
2019-02-02T11:18:42.590Z,3.10
2019-02-02T11:21:12.249Z,3.07
2019-02-02T11:23:42.051Z,3.13
2019-02-02T11:26:11.923Z,3.70
2019-02-02T11:28:41.652Z,3.37
2019-02-02T11:31:11.381Z,3.90
2019-02-02T11:33:41.128Z,3.30
2019-02-02T11:36:12.427Z,3.10
2019-02-02T11:38:42.041Z,3.00
2019-02-02T11:41:12.746Z,3.30
2019-02-02T11:43:42.358Z,4.03
2019-02-02T11:46:11.986Z,5.03
2019-02-02T11:48:41.598Z,6.60
2019-02-02T11:51:11.312Z,4.10
2019-02-02T11:53:40.953Z,4.23
2019-02-02T11:56:10.547Z,4.50
2019-02-02T11:58:40.121Z,5.70
2019-02-02T12:01:09.704Z,4.37
2019-02-02T12:03:39.349Z,4.70
2019-02-02T12:06:09.904Z,5.00
2019-02-02T12:08:39.510Z,4.43
2019-02-02T12:11:09.388Z,5.37
2019-02-02T12:13:39.016Z,7.30
2019-02-02T12:16:08.732Z,4.77
2019-02-02T12:18:38.390Z,5.27
2019-02-02T12:21:08.090Z,5.17
2019-02-02T12:23:37.917Z,4.20
2019-02-02T12:26:07.558Z,4.30
2019-02-02T12:28:37.598Z,4.17
2019-02-02T12:31:07.340Z,4.80
2019-02-02T12:33:36.978Z,4.53
2019-02-02T12:36:06.614Z,5.10
2019-02-02T12:38:36.661Z,5.13
2019-02-02T12:41:07.010Z,5.53
2019-02-02T12:43:36.673Z,4.70
2019-02-02T12:46:06.964Z,5.90
2019-02-02T12:48:36.745Z,4.73
2019-02-02T12:51:06.386Z,4.27
2019-02-02T12:53:36.053Z,4.57
2019-02-02T12:56:05.687Z,5.10
2019-02-02T12:58:35.310Z,6.20
2019-02-02T13:01:04.974Z,5.40
2019-02-02T13:03:34.594Z,5.60
2019-02-02T13:06:04.220Z,6.03
2019-02-02T13:08:33.901Z,5.30
2019-02-02T13:11:03.528Z,6.23
2019-02-02T13:13:33.240Z,7.17
2019-02-02T13:16:02.861Z,6.20
2019-02-02T13:18:32.401Z,5.63
2019-02-02T13:21:02.053Z,6.97
2019-02-02T13:23:31.689Z,5.30
2019-02-02T13:26:05.682Z,5.50
2019-02-02T13:28:32.867Z,5.77
2019-02-02T13:31:02.535Z,5.93
2019-02-02T13:33:32.215Z,5.87
2019-02-02T13:36:01.903Z,6.73
2019-02-02T13:38:32.804Z,5.43
2019-02-02T13:41:02.410Z,4.80
2019-02-02T13:43:32.028Z,5.00
2019-02-02T13:46:01.656Z,4.73
2019-02-02T13:48:31.224Z,6.90
2019-02-02T13:51:00.933Z,6.00
2019-02-02T13:53:30.628Z,7.27
2019-02-02T13:56:00.378Z,6.30
2019-02-02T13:58:30.018Z,6.10
2019-02-02T14:00:59.895Z,7.00
2019-02-02T14:03:29.546Z,5.90
2019-02-02T14:05:59.245Z,4.90
2019-02-02T14:08:28.894Z,5.07
2019-02-02T14:10:58.500Z,5.17
2019-02-02T14:13:28.058Z,6.10
2019-02-02T14:15:57.771Z,5.20
2019-02-02T14:18:27.450Z,5.17
2019-02-02T14:20:57.101Z,5.40
2019-02-02T14:23:28.298Z,5.27
2019-02-02T14:25:58.060Z,5.67
2019-02-02T14:28:28.816Z,5.30
2019-02-02T14:30:59.004Z,5.27
2019-02-02T14:33:28.645Z,4.73
2019-02-02T14:35:58.319Z,4.77
2019-02-02T14:38:27.997Z,4.40
2019-02-02T14:40:57.606Z,4.27
2019-02-02T14:43:27.181Z,4.50
2019-02-02T14:45:56.874Z,4.60
2019-02-02T14:48:26.474Z,5.57
2019-02-02T14:50:56.079Z,5.50
2019-02-02T14:53:25.683Z,4.40
2019-02-02T14:55:55.289Z,4.43
2019-02-02T14:58:24.909Z,4.73
2019-02-02T15:00:55.990Z,4.43
2019-02-02T15:03:26.337Z,4.63
2019-02-02T15:05:57.037Z,4.80
2019-02-02T15:08:26.660Z,4.40
2019-02-02T15:10:56.378Z,4.67
2019-02-02T15:13:26.030Z,4.10
2019-02-02T15:15:55.665Z,3.63
2019-02-02T15:18:25.291Z,5.00
2019-02-02T15:20:54.907Z,4.00
2019-02-02T15:23:24.969Z,4.50
2019-02-02T15:25:54.613Z,3.63
2019-02-02T15:28:24.257Z,4.67
2019-02-02T15:30:54.158Z,4.40
2019-02-02T15:33:23.833Z,4.40
2019-02-02T15:35:54.129Z,4.60
2019-02-02T15:38:23.717Z,5.43
2019-02-02T15:40:59.203Z,4.63
2019-02-02T15:43:24.761Z,5.20
2019-02-02T15:45:54.375Z,3.43
2019-02-02T15:48:24.017Z,4.47
2019-02-02T15:50:53.662Z,4.17
2019-02-02T15:53:25.038Z,4.00
2019-02-02T15:55:54.746Z,4.90
2019-02-02T15:58:24.418Z,3.90
2019-02-02T16:00:54.116Z,4.00
2019-02-02T16:03:23.838Z,4.10
2019-02-02T16:05:53.550Z,3.87
2019-02-02T16:08:23.329Z,3.73
2019-02-02T16:10:52.953Z,3.70
2019-02-02T16:13:22.598Z,4.43
2019-02-02T16:15:52.169Z,4.87
2019-02-02T16:18:21.748Z,4.50
2019-02-02T16:20:51.413Z,3.93
2019-02-02T16:23:21.027Z,3.87
2019-02-02T16:25:50.711Z,4.43
2019-02-02T16:28:20.342Z,4.87
2019-02-02T16:30:49.977Z,3.60
2019-02-02T16:33:19.613Z,3.90
2019-02-02T16:35:49.241Z,5.03
2019-02-02T16:38:18.898Z,3.10
2019-02-02T16:40:48.483Z,3.53
2019-02-02T16:43:18.098Z,3.70
2019-02-02T16:45:47.690Z,4.03
2019-02-02T16:48:17.328Z,3.90
2019-02-02T16:50:46.940Z,3.17
2019-02-02T16:53:16.543Z,3.60
2019-02-02T16:55:46.145Z,3.40
2019-02-02T16:58:15.714Z,4.70
2019-02-02T17:00:45.308Z,4.03
2019-02-02T17:03:14.931Z,4.80
2019-02-02T17:05:44.520Z,3.93
2019-02-02T17:08:14.124Z,4.10
2019-02-02T17:10:43.768Z,3.80
2019-02-02T17:13:13.389Z,3.40
2019-02-02T17:15:42.964Z,3.37
2019-02-02T17:18:12.575Z,3.73
2019-02-02T17:20:45.066Z,4.37
2019-02-02T17:23:14.771Z,4.03
2019-02-02T17:25:45.274Z,3.53
2019-02-02T17:28:14.997Z,3.57
2019-02-02T17:30:44.556Z,3.03
2019-02-02T17:33:17.453Z,3.90
2019-02-02T17:35:47.040Z,3.07
2019-02-02T17:38:16.623Z,4.00
2019-02-02T17:40:46.269Z,3.60
2019-02-02T17:43:15.980Z,3.87
2019-02-02T17:45:45.695Z,3.30
2019-02-02T17:48:15.360Z,3.63
2019-02-02T17:50:44.995Z,3.37
2019-02-02T17:53:14.699Z,4.13
2019-02-02T17:55:44.393Z,3.43
2019-02-02T17:58:14.000Z,3.67
2019-02-02T18:00:59.858Z,3.57
2019-02-02T18:03:29.490Z,3.03
2019-02-02T18:05:59.152Z,4.07
2019-02-02T18:08:28.858Z,3.40
2019-02-02T18:10:58.486Z,3.83
2019-02-02T18:13:28.077Z,3.50
2019-02-02T18:15:57.669Z,3.43
2019-02-02T18:18:27.262Z,3.17
2019-02-02T18:20:56.888Z,3.07
2019-02-02T18:23:26.466Z,2.80
2019-02-02T18:25:56.079Z,3.53
2019-02-02T18:28:25.689Z,4.10
2019-02-02T18:30:55.337Z,2.87
2019-02-02T18:33:26.543Z,3.27
2019-02-02T18:35:56.255Z,4.40
2019-02-02T18:38:25.857Z,4.23
2019-02-02T18:40:55.444Z,2.90
2019-02-02T18:43:24.991Z,3.33
2019-02-02T18:45:54.629Z,3.13
2019-02-02T18:48:24.234Z,2.60
2019-02-02T18:50:53.843Z,2.40
2019-02-02T18:53:24.497Z,2.97
2019-02-02T18:56:06.429Z,2.90
2019-02-02T18:58:37.102Z,3.60
2019-02-02T19:01:08.358Z,3.57
2019-02-02T19:03:37.971Z,3.40
2019-02-02T19:06:07.541Z,3.43
2019-02-02T19:08:49.507Z,3.00
2019-02-02T19:11:19.119Z,4.00
2019-02-02T19:13:48.682Z,2.77
2019-02-02T19:16:18.300Z,3.37
2019-02-02T19:18:47.903Z,3.07
2019-02-02T19:21:17.470Z,3.97
2019-02-02T19:23:47.080Z,3.13
2019-02-02T19:26:16.671Z,4.80
2019-02-02T19:28:46.262Z,3.37
2019-02-02T19:31:15.942Z,2.90
2019-02-02T19:33:45.550Z,2.80
2019-02-02T19:36:15.113Z,3.60
2019-02-02T19:38:44.730Z,2.80
2019-02-02T19:41:14.295Z,2.90
2019-02-02T19:43:43.928Z,2.80
2019-02-02T19:46:13.531Z,3.40
2019-02-02T19:48:44.788Z,3.20
2019-02-02T19:51:14.369Z,3.00
2019-02-02T19:53:43.922Z,3.03
2019-02-02T19:56:13.522Z,2.73
2019-02-02T19:58:43.182Z,2.60
2019-02-02T20:01:12.762Z,3.30
2019-02-02T20:03:42.312Z,2.63
2019-02-02T20:06:11.916Z,3.27
2019-02-02T20:08:41.561Z,2.93
2019-02-02T20:11:11.173Z,3.17
2019-02-02T20:13:40.855Z,2.97
2019-02-02T20:16:10.545Z,3.17
2019-02-02T20:18:40.165Z,3.00
2019-02-02T20:21:09.738Z,3.07
2019-02-02T20:23:39.301Z,3.00
2019-02-02T20:26:20.568Z,2.80
2019-02-02T20:28:50.228Z,2.67
2019-02-02T20:31:19.840Z,2.70
2019-02-02T20:33:49.524Z,2.67
2019-02-02T20:36:19.198Z,2.80
2019-02-02T20:38:48.790Z,2.70
2019-02-02T20:41:18.386Z,3.00
2019-02-02T20:43:47.965Z,3.40
2019-02-02T20:46:17.573Z,2.77
2019-02-02T20:48:47.180Z,3.00
2019-02-02T20:51:16.923Z,2.90
2019-02-02T20:53:46.577Z,4.63
2019-02-02T20:56:17.395Z,3.03
2019-02-02T20:58:47.048Z,2.90
2019-02-02T21:01:17.410Z,4.00
2019-02-02T21:03:46.986Z,3.10
2019-02-02T21:06:17.986Z,2.70
2019-02-02T21:08:47.557Z,3.40
2019-02-02T21:11:17.181Z,2.80
2019-02-02T21:13:48.537Z,2.70
2019-02-02T21:16:18.159Z,2.40
2019-02-02T21:18:47.845Z,3.27
2019-02-02T21:21:17.457Z,2.93
2019-02-02T21:23:47.143Z,3.03
2019-02-02T21:26:19.668Z,2.87
2019-02-02T21:28:50.748Z,2.40
2019-02-02T21:31:20.500Z,3.07
2019-02-02T21:33:50.110Z,3.80
2019-02-02T21:36:19.784Z,2.80
2019-02-02T21:38:51.127Z,3.00
2019-02-02T21:41:20.784Z,3.10
2019-02-02T21:43:51.370Z,2.57
2019-02-02T21:46:20.954Z,3.57
2019-02-02T21:48:50.530Z,3.07
2019-02-02T21:51:21.854Z,3.23
2019-02-02T21:53:51.490Z,3.40
2019-02-02T21:56:21.081Z,3.00
2019-02-02T21:58:50.779Z,3.03
2019-02-02T22:01:24.333Z,3.40
2019-02-02T22:03:51.765Z,2.80
2019-02-02T22:06:21.374Z,3.00
2019-02-02T22:08:51.713Z,3.27
2019-02-02T22:11:21.456Z,3.70
2019-02-02T22:13:51.006Z,3.30
2019-02-02T22:16:21.442Z,3.40
2019-02-02T22:18:51.007Z,3.10
2019-02-02T22:21:20.706Z,2.90
2019-02-02T22:23:50.318Z,3.20
2019-02-02T22:26:19.949Z,2.67
2019-02-02T22:28:49.641Z,2.83
2019-02-02T22:31:19.297Z,3.13
2019-02-02T22:33:49.233Z,3.30
2019-02-02T22:36:27.012Z,3.60
2019-02-02T22:38:50.301Z,2.83
2019-02-02T22:41:21.001Z,2.77
2019-02-02T22:43:50.660Z,3.30
2019-02-02T22:46:20.281Z,2.90
2019-02-02T22:48:49.999Z,2.87
2019-02-02T22:51:19.572Z,3.13
2019-02-02T22:53:49.813Z,3.17
2019-02-02T22:56:19.421Z,3.30
2019-02-02T22:58:49.110Z,3.07
2019-02-02T23:01:27.870Z,3.27
2019-02-02T23:04:09.325Z,2.77
2019-02-02T23:06:57.229Z,2.80
2019-02-02T23:10:32.036Z,3.63
2019-02-02T23:13:37.327Z,2.90
2019-02-02T23:16:32.221Z,2.93
2019-02-02T23:19:01.800Z,2.77
2019-02-02T23:21:32.264Z,2.93
2019-02-02T23:24:01.928Z,3.17
2019-02-02T23:26:31.494Z,2.27
2019-02-02T23:29:01.205Z,3.17
2019-02-02T23:31:32.414Z,2.77
2019-02-02T23:34:02.000Z,3.10
2019-02-02T23:36:32.290Z,3.17
2019-02-02T23:39:01.927Z,3.40
2019-02-02T23:41:33.196Z,2.77
2019-02-02T23:44:02.837Z,2.53
2019-02-02T23:46:32.390Z,2.87
2019-02-02T23:49:02.025Z,2.87
2019-02-02T23:51:31.726Z,2.50
2019-02-02T23:54:02.331Z,2.73
2019-02-02T23:56:32.275Z,2.53
2019-02-02T23:59:01.931Z,2.20
